Time;durP1;ratioP1;P1;durP2;ratioP2;P2;SDS_P1;SDS_P2;PMS_P1;PMS_P2;Temp;Humidity;BMP_temperature;BMP_pressure;BME280_temperature;BME280_humidity;BME280_pressure;Samples;Min_cycle;Max_cycle;Signal;HPM_P1;HPM_P2
2021/11/27 00:00:44;;;;;;;20.85;15.15;;;4.50;99.90;;;;;;5111918;28;20047;-71
2021/11/27 00:03:11;;;;;;;21.73;14.88;;;4.50;99.90;;;;;;5113894;28;20043;-71
2021/11/27 00:05:38;;;;;;;22.27;14.98;;;4.50;99.90;;;;;;5113363;28;20078;-71
2021/11/27 00:08:06;;;;;;;20.80;15.40;;;4.50;99.90;;;;;;5113415;28;20040;-71
2021/11/27 00:10:33;;;;;;;21.25;15.18;;;4.50;99.90;;;;;;5113829;28;20040;-71
2021/11/27 00:13:00;;;;;;;20.85;14.73;;;4.50;99.90;;;;;;5112330;28;20040;-71
2021/11/27 00:15:26;;;;;;;22.95;15.50;;;4.50;99.90;;;;;;5113589;28;20040;-71
2021/11/27 00:17:53;;;;;;;20.42;13.48;;;4.50;99.90;;;;;;5111654;28;20035;-71
2021/11/27 00:20:23;;;;;;;21.27;15.05;;;4.50;99.90;;;;;;5112061;28;20052;-71
2021/11/27 00:22:49;;;;;;;20.70;14.38;;;4.50;99.90;;;;;;5111917;28;20541;-71
2021/11/27 00:25:15;;;;;;;22.92;15.48;;;4.50;99.90;;;;;;5111824;28;20051;-71
2021/11/27 00:27:41;;;;;;;22.40;15.43;;;4.50;99.90;;;;;;5111591;28;20508;-71
2021/11/27 00:30:12;;;;;;;22.70;15.07;;;4.50;99.90;;;;;;5112277;28;20040;-71
2021/11/27 00:32:38;;;;;;;23.05;15.75;;;4.50;99.90;;;;;;5113208;28;20058;-71
2021/11/27 00:35:04;;;;;;;22.90;15.10;;;4.50;99.90;;;;;;5113133;28;20040;-71
2021/11/27 00:37:30;;;;;;;22.00;13.57;;;4.50;99.90;;;;;;5113006;28;20039;-71
2021/11/27 00:39:56;;;;;;;19.85;14.05;;;4.40;99.90;;;;;;5111949;28;20449;-71
2021/11/27 00:42:22;;;;;;;21.27;13.68;;;4.40;99.90;;;;;;5112008;28;20050;-71
2021/11/27 00:44:47;;;;;;;23.20;14.75;;;4.50;99.90;;;;;;5112953;28;20084;-71
2021/11/27 00:47:13;;;;;;;20.48;14.35;;;4.50;99.90;;;;;;5112839;28;20046;-71
2021/11/27 00:49:39;;;;;;;20.45;13.93;;;4.50;99.90;;;;;;5115464;28;20031;-71
2021/11/27 00:52:04;;;;;;;21.23;14.50;;;4.50;99.90;;;;;;5115269;28;20039;-71
2021/11/27 00:54:30;;;;;;;20.35;13.93;;;4.40;99.90;;;;;;5116576;28;20209;-71
2021/11/27 00:56:56;;;;;;;20.63;14.35;;;4.40;99.90;;;;;;5116211;28;20050;-71
2021/11/27 00:59:21;;;;;;;19.98;13.10;;;4.40;99.90;;;;;;5115679;28;20046;-71
2021/11/27 01:01:48;;;;;;;19.88;14.15;;;4.30;99.90;;;;;;5116383;28;20040;-71
2021/11/27 01:04:14;;;;;;;18.20;12.88;;;4.40;99.90;;;;;;5116776;28;20097;-71
2021/11/27 01:06:40;;;;;;;19.08;14.05;;;4.40;99.90;;;;;;5116384;28;20043;-71
2021/11/27 01:09:10;;;;;;;21.33;13.60;;;4.40;99.90;;;;;;5116733;28;20032;-71
2021/11/27 01:11:46;;;;;;;21.60;13.57;;;4.40;99.90;;;;;;5115466;28;20040;-71
2021/11/27 01:14:20;;;;;;;19.35;13.30;;;4.40;99.90;;;;;;5115057;28;20040;-71
2021/11/27 01:16:49;;;;;;;21.15;14.13;;;4.40;99.90;;;;;;5115740;28;20614;-71
2021/11/27 01:19:15;;;;;;;21.58;14.52;;;4.30;99.90;;;;;;5115195;28;20043;-71
2021/11/27 01:21:46;;;;;;;18.60;13.95;;;4.30;99.90;;;;;;5116482;27;20384;-71
2021/11/27 01:24:15;;;;;;;21.67;15.38;;;4.30;99.90;;;;;;5116469;28;20031;-71
2021/11/27 01:26:42;;;;;;;21.50;14.60;;;4.20;99.90;;;;;;5115414;28;20043;-71
2021/11/27 01:29:08;;;;;;;21.10;14.63;;;4.30;99.90;;;;;;5114709;28;20051;-71
2021/11/27 01:31:35;;;;;;;24.17;15.80;;;4.20;99.90;;;;;;5116039;28;20036;-71
2021/11/27 01:34:02;;;;;;;22.65;14.98;;;4.20;99.90;;;;;;5116025;28;20050;-71
2021/11/27 01:36:27;;;;;;;21.67;14.23;;;4.30;99.90;;;;;;5115492;28;20035;-71
2021/11/27 01:38:53;;;;;;;22.05;15.60;;;4.30;99.90;;;;;;5115679;28;20039;-71
2021/11/27 01:41:18;;;;;;;20.85;14.90;;;4.20;99.90;;;;;;5115781;28;20069;-71
2021/11/27 01:43:45;;;;;;;22.88;15.32;;;4.20;99.90;;;;;;5128972;27;20038;-71
2021/11/27 01:46:11;;;;;;;22.20;14.55;;;4.20;99.90;;;;;;5134555;27;20063;-71
2021/11/27 01:48:40;;;;;;;21.77;14.65;;;4.20;99.90;;;;;;5136278;27;20453;-71
2021/11/27 01:51:10;;;;;;;21.13;15.30;;;4.20;99.90;;;;;;5136031;27;20039;-71
2021/11/27 01:53:41;;;;;;;21.85;14.88;;;4.30;99.90;;;;;;5136362;27;20506;-71
2021/11/27 01:56:14;;;;;;;19.90;14.13;;;4.20;99.90;;;;;;5134494;27;20050;-71
2021/11/27 01:58:41;;;;;;;21.08;14.68;;;4.20;99.90;;;;;;5135642;27;20042;-71
2021/11/27 02:01:11;;;;;;;21.23;14.85;;;4.30;99.90;;;;;;5136390;27;20039;-71
2021/11/27 02:03:38;;;;;;;20.50;14.85;;;4.30;99.90;;;;;;5135988;27;20050;-71
2021/11/27 02:06:05;;;;;;;21.65;15.07;;;4.30;99.90;;;;;;5134645;27;20035;-71
2021/11/27 02:08:32;;;;;;;25.02;16.50;;;4.30;99.90;;;;;;5135806;27;20038;-71
2021/11/27 02:10:59;;;;;;;22.80;15.70;;;4.30;99.90;;;;;;5135668;27;20530;-71
2021/11/27 02:13:25;;;;;;;23.40;15.75;;;4.30;99.90;;;;;;5134643;27;20096;-71
2021/11/27 02:15:51;;;;;;;22.92;15.57;;;4.30;99.90;;;;;;5135537;27;20446;-71
2021/11/27 02:18:16;;;;;;;26.05;16.40;;;4.30;99.90;;;;;;5135766;27;20043;-71
2021/11/27 02:20:57;;;;;;;21.60;14.90;;;4.20;99.90;;;;;;5135675;27;20039;-71
2021/11/27 02:23:23;;;;;;;26.70;17.58;;;4.30;99.90;;;;;;5135709;27;20127;-71
2021/11/27 02:25:49;;;;;;;24.38;16.55;;;4.30;99.90;;;;;;5134052;27;20066;-71
2021/11/27 02:28:15;;;;;;;23.90;15.52;;;4.30;99.90;;;;;;5135303;27;20563;-71
2021/11/27 02:30:41;;;;;;;22.60;15.48;;;4.30;99.90;;;;;;5134710;27;20039;-71
2021/11/27 02:33:07;;;;;;;22.95;15.98;;;4.30;99.90;;;;;;5135703;27;20050;-71
2021/11/27 02:35:33;;;;;;;23.55;16.35;;;4.30;99.90;;;;;;5134794;27;20050;-71
2021/11/27 02:37:59;;;;;;;23.58;16.40;;;4.40;99.90;;;;;;5135443;27;20031;-71
2021/11/27 02:40:26;;;;;;;24.60;16.23;;;4.40;99.90;;;;;;5135380;27;20047;-71
2021/11/27 02:42:53;;;;;;;26.23;16.63;;;4.40;99.90;;;;;;5133885;27;20124;-71
2021/11/27 02:45:18;;;;;;;27.50;17.27;;;4.40;99.90;;;;;;5135582;27;20119;-71
2021/11/27 02:47:44;;;;;;;22.75;15.50;;;4.40;99.90;;;;;;5134696;27;20062;-71
2021/11/27 02:50:13;;;;;;;31.13;17.67;;;4.40;99.90;;;;;;5135087;27;20035;-71
2021/11/27 02:52:39;;;;;;;24.38;16.40;;;4.40;99.90;;;;;;5133827;27;20075;-71
2021/11/27 02:55:06;;;;;;;25.75;17.10;;;4.40;99.90;;;;;;5133912;27;20043;-71
2021/11/27 02:57:32;;;;;;;24.35;16.60;;;4.40;99.90;;;;;;5134379;27;20039;-71
2021/11/27 02:59:59;;;;;;;26.67;17.20;;;4.40;99.90;;;;;;5135142;27;20118;-71
2021/11/27 03:02:25;;;;;;;26.75;17.30;;;4.40;99.90;;;;;;5134915;27;20082;-71
2021/11/27 03:04:51;;;;;;;27.45;17.30;;;4.40;99.90;;;;;;5134811;27;20122;-71
2021/11/27 03:07:17;;;;;;;29.60;18.63;;;4.50;99.90;;;;;;5134471;27;20031;-71
2021/11/27 03:09:43;;;;;;;26.80;17.63;;;4.50;99.90;;;;;;5134875;27;20532;-71
2021/11/27 03:12:09;;;;;;;25.52;16.73;;;4.50;99.90;;;;;;5132679;27;20047;-71
2021/11/27 03:14:36;;;;;;;26.98;16.90;;;4.50;99.90;;;;;;5133442;27;20047;-71
2021/11/27 03:17:02;;;;;;;27.45;17.85;;;4.50;99.90;;;;;;5134242;27;20095;-71
2021/11/27 03:19:32;;;;;;;28.40;18.33;;;4.50;99.90;;;;;;5134900;27;20035;-71
2021/11/27 03:21:59;;;;;;;27.25;17.50;;;4.50;99.90;;;;;;5133387;27;20118;-71
2021/11/27 03:24:24;;;;;;;29.17;17.17;;;4.50;99.90;;;;;;5134574;27;20038;-71
2021/11/27 03:26:50;;;;;;;30.05;17.65;;;4.50;99.90;;;;;;5133970;27;20043;-71
2021/11/27 03:29:16;;;;;;;26.42;17.00;;;4.50;99.90;;;;;;5134642;27;20031;-71
2021/11/27 03:31:42;;;;;;;29.33;17.73;;;4.50;99.90;;;;;;5134261;27;20043;-71
2021/11/27 03:34:07;;;;;;;27.60;18.02;;;4.50;99.90;;;;;;5134493;27;20514;-71
2021/11/27 03:36:33;;;;;;;28.48;17.90;;;4.50;99.90;;;;;;5133841;27;20039;-71
2021/11/27 03:38:59;;;;;;;25.95;16.88;;;4.60;99.90;;;;;;5134853;28;20076;-71
2021/11/27 03:41:25;;;;;;;29.75;19.00;;;4.60;99.90;;;;;;5134370;27;20039;-71
2021/11/27 03:43:51;;;;;;;28.52;17.42;;;4.60;99.90;;;;;;5134666;27;20082;-71
2021/11/27 03:46:16;;;;;;;26.52;16.70;;;4.50;99.90;;;;;;5132524;27;20396;-70
2021/11/27 03:48:43;;;;;;;29.63;19.30;;;4.50;99.90;;;;;;5134316;28;20035;-71
2021/11/27 03:51:18;;;;;;;29.73;17.80;;;4.50;99.90;;;;;;5134307;27;20042;-71
2021/11/27 03:53:44;;;;;;;26.25;17.65;;;4.50;99.90;;;;;;5134473;27;20095;-71
2021/11/27 03:56:13;;;;;;;31.10;18.30;;;4.60;99.90;;;;;;5133735;27;20043;-71
2021/11/27 03:58:38;;;;;;;30.48;17.90;;;4.60;99.90;;;;;;5133919;27;20037;-71
2021/11/27 04:01:08;;;;;;;29.55;17.25;;;4.60;99.90;;;;;;5134208;28;20122;-71
2021/11/27 04:03:36;;;;;;;26.75;17.63;;;4.60;99.90;;;;;;5132738;27;20086;-71
2021/11/27 04:06:02;;;;;;;30.60;18.38;;;4.60;99.90;;;;;;5132699;28;20047;-71
2021/11/27 04:08:28;;;;;;;28.08;17.75;;;4.60;99.90;;;;;;5134067;27;20040;-71
2021/11/27 04:10:54;;;;;;;27.77;17.88;;;4.60;99.90;;;;;;5134216;27;20050;-71
2021/11/27 04:13:21;;;;;;;29.73;17.90;;;4.70;99.90;;;;;;5133906;28;20039;-71
2021/11/27 04:15:47;;;;;;;34.70;19.33;;;4.70;99.90;;;;;;5132373;28;20035;-71
2021/11/27 04:18:13;;;;;;;28.23;17.73;;;4.70;99.90;;;;;;5132763;28;20116;-71
2021/11/27 04:20:40;;;;;;;30.67;18.50;;;4.60;99.90;;;;;;5133854;27;20431;-71
2021/11/27 04:23:06;;;;;;;26.90;18.27;;;4.70;99.90;;;;;;5137017;27;20488;-71
2021/11/27 04:25:32;;;;;;;26.27;17.25;;;4.70;99.90;;;;;;5135994;27;20039;-71
2021/11/27 04:27:57;;;;;;;24.83;15.77;;;4.70;99.90;;;;;;5138356;27;20029;-71
2021/11/27 04:30:27;;;;;;;28.98;17.58;;;4.70;99.90;;;;;;5137573;27;20125;-71
2021/11/27 04:32:53;;;;;;;26.70;16.60;;;4.70;99.90;;;;;;5136318;27;20047;-71
2021/11/27 04:35:20;;;;;;;27.73;16.85;;;4.70;99.90;;;;;;5137527;27;20027;-71
2021/11/27 04:37:46;;;;;;;27.20;16.00;;;4.70;99.90;;;;;;5118654;27;20042;-71
2021/11/27 04:40:13;;;;;;;23.52;15.85;;;4.70;99.90;;;;;;5137456;27;20039;-71
2021/11/27 04:42:39;;;;;;;24.73;16.30;;;4.80;99.90;;;;;;5137350;27;20380;-71
2021/11/27 04:45:06;;;;;;;22.90;15.85;;;4.80;99.90;;;;;;5136076;27;20035;-71
2021/11/27 04:47:32;;;;;;;27.67;17.73;;;4.70;99.90;;;;;;5137222;27;20411;-71
2021/11/27 04:49:58;;;;;;;22.73;15.30;;;4.70;99.90;;;;;;5137655;27;20039;-71
2021/11/27 04:52:24;;;;;;;26.80;15.80;;;4.70;99.90;;;;;;5136676;27;20043;-71
2021/11/27 04:54:51;;;;;;;22.77;15.00;;;4.70;99.90;;;;;;5137380;27;20038;-71
2021/11/27 04:57:17;;;;;;;24.35;15.50;;;4.70;99.90;;;;;;5137000;27;20388;-71
2021/11/27 04:59:43;;;;;;;26.10;16.95;;;4.70;99.90;;;;;;5135963;27;20387;-71
2021/11/27 05:02:09;;;;;;;23.83;15.68;;;4.70;99.90;;;;;;5137096;27;20050;-71
2021/11/27 05:04:36;;;;;;;24.30;16.25;;;4.70;99.90;;;;;;5136030;27;20035;-71
2021/11/27 05:07:01;;;;;;;24.50;15.40;;;4.70;99.90;;;;;;5136729;27;20110;-71
2021/11/27 05:09:27;;;;;;;24.35;15.40;;;4.70;99.90;;;;;;5136947;27;20549;-71
2021/11/27 05:11:52;;;;;;;27.20;16.60;;;4.70;99.90;;;;;;5136967;27;20043;-71
2021/11/27 05:14:18;;;;;;;23.65;15.25;;;4.70;99.90;;;;;;5136987;27;20110;-71
2021/11/27 05:16:44;;;;;;;24.60;16.38;;;4.70;99.90;;;;;;5136563;27;20474;-71
2021/11/27 05:19:09;;;;;;;24.15;15.98;;;4.70;99.90;;;;;;5135407;27;20031;-71
2021/11/27 05:21:35;;;;;;;22.27;15.45;;;4.70;99.90;;;;;;5136804;27;20095;-71
2021/11/27 05:24:00;;;;;;;23.85;15.55;;;4.70;99.90;;;;;;5135786;27;20504;-71
2021/11/27 05:26:26;;;;;;;26.00;15.23;;;4.70;99.90;;;;;;5134846;27;20035;-71
2021/11/27 05:28:52;;;;;;;22.42;15.15;;;4.70;99.90;;;;;;5135417;27;20035;-71
2021/11/27 05:31:18;;;;;;;25.08;16.73;;;4.70;99.90;;;;;;5136535;27;20039;-71
2021/11/27 05:36:16;;;;;;;23.25;15.02;;;4.70;99.90;;;;;;5134841;27;20051;-71
2021/11/27 05:38:43;;;;;;;24.17;15.32;;;4.70;99.90;;;;;;5136419;27;20047;-71
2021/11/27 05:41:09;;;;;;;24.95;15.68;;;4.70;99.90;;;;;;5136534;27;20057;-71
2021/11/27 05:43:35;;;;;;;24.15;15.75;;;4.60;99.90;;;;;;5136191;27;20481;-71
2021/11/27 05:46:01;;;;;;;23.45;16.20;;;4.60;99.90;;;;;;5117542;27;20058;-71
2021/11/27 05:48:27;;;;;;;25.08;16.30;;;4.60;99.90;;;;;;5136282;27;20541;-71
2021/11/27 05:50:53;;;;;;;28.10;16.88;;;4.60;99.90;;;;;;5136249;27;20039;-71
2021/11/27 05:53:19;;;;;;;29.35;17.15;;;4.60;99.90;;;;;;5134769;27;20047;-71
2021/11/27 05:55:49;;;;;;;24.92;16.40;;;4.60;99.90;;;;;;5135962;27;20050;-71
2021/11/27 05:58:17;;;;;;;27.70;16.38;;;4.60;99.90;;;;;;5136329;27;20035;-71
2021/11/27 06:00:43;;;;;;;28.67;17.80;;;4.60;99.90;;;;;;5136038;27;20035;-71
2021/11/27 06:03:09;;;;;;;27.17;16.52;;;4.60;99.90;;;;;;5135923;27;20035;-71
2021/11/27 06:05:35;;;;;;;28.17;16.98;;;4.60;99.90;;;;;;5135734;27;20438;-72
2021/11/27 06:08:00;;;;;;;27.40;16.45;;;4.60;99.90;;;;;;5135888;27;20043;-71
2021/11/27 06:10:26;;;;;;;27.08;16.95;;;4.60;99.90;;;;;;5136004;27;20035;-71
2021/11/27 06:12:52;;;;;;;25.40;16.02;;;4.60;99.90;;;;;;5135556;27;20039;-71
2021/11/27 06:15:17;;;;;;;28.88;17.25;;;4.60;99.90;;;;;;5135983;27;20112;-71
2021/11/27 06:17:43;;;;;;;28.25;16.98;;;4.60;99.90;;;;;;5135256;27;20081;-71
2021/11/27 06:20:09;;;;;;;27.98;17.58;;;4.60;99.90;;;;;;5134500;27;20051;-71
2021/11/27 06:22:35;;;;;;;28.33;17.30;;;4.60;99.90;;;;;;5134529;27;20354;-71
2021/11/27 06:25:01;;;;;;;26.85;17.20;;;4.60;99.90;;;;;;5135413;27;20095;-71
2021/11/27 06:27:26;;;;;;;29.90;17.75;;;4.60;99.90;;;;;;5135318;27;20035;-71
2021/11/27 06:29:52;;;;;;;26.73;16.27;;;4.60;99.90;;;;;;5135551;27;20035;-71
2021/11/27 06:32:22;;;;;;;28.00;17.35;;;4.60;99.90;;;;;;5135228;27;20111;-71
2021/11/27 06:34:51;;;;;;;25.58;16.50;;;4.60;99.90;;;;;;5135702;27;20047;-71
2021/11/27 06:37:17;;;;;;;25.13;16.25;;;4.60;99.90;;;;;;5133744;27;20122;-71
2021/11/27 06:39:42;;;;;;;24.85;16.63;;;4.60;99.90;;;;;;5135349;27;20042;-71
2021/11/27 06:42:08;;;;;;;26.58;17.15;;;4.60;99.90;;;;;;5135307;27;20036;-71
2021/11/27 06:44:34;;;;;;;28.05;15.98;;;4.60;99.90;;;;;;5116393;27;20043;-71
2021/11/27 06:47:00;;;;;;;25.88;16.10;;;4.70;99.90;;;;;;5133964;27;20035;-71
2021/11/27 06:49:26;;;;;;;24.38;15.40;;;4.60;99.90;;;;;;5134890;27;20035;-71
2021/11/27 06:51:51;;;;;;;26.02;16.35;;;4.60;99.90;;;;;;5135069;27;20127;-71
2021/11/27 06:54:17;;;;;;;25.23;16.20;;;4.60;99.90;;;;;;5135245;27;20042;-71
2021/11/27 06:56:42;;;;;;;24.23;15.60;;;4.60;99.90;;;;;;5133248;27;20039;-71
2021/11/27 06:59:08;;;;;;;26.55;16.33;;;4.70;99.90;;;;;;5135317;27;20071;-71
2021/11/27 07:01:34;;;;;;;24.15;15.60;;;4.60;99.90;;;;;;5134984;27;20083;-71
2021/11/27 07:04:00;;;;;;;24.55;16.02;;;4.70;99.90;;;;;;5134108;27;20118;-71
2021/11/27 07:06:26;;;;;;;27.05;15.98;;;4.70;99.90;;;;;;5134475;27;20035;-71
2021/11/27 07:08:52;;;;;;;27.45;16.08;;;4.70;99.90;;;;;;5133739;27;20051;-71
2021/11/27 07:11:17;;;;;;;28.23;16.80;;;4.70;99.90;;;;;;5134714;27;20117;-71
2021/11/27 07:13:43;;;;;;;24.38;16.58;;;4.70;99.90;;;;;;5134410;27;20046;-70
2021/11/27 07:16:09;;;;;;;24.83;15.07;;;4.70;99.90;;;;;;5134365;27;20041;-71
2021/11/27 07:18:34;;;;;;;27.58;16.85;;;4.70;99.90;;;;;;5134608;27;20067;-71
2021/11/27 07:21:00;;;;;;;25.25;15.68;;;4.70;99.90;;;;;;5133681;27;20038;-71
2021/11/27 07:23:26;;;;;;;25.20;15.60;;;4.60;99.90;;;;;;5134520;27;20047;-71
2021/11/27 07:25:51;;;;;;;24.63;15.70;;;4.70;99.90;;;;;;5132858;27;20043;-71
2021/11/27 07:28:17;;;;;;;26.05;15.50;;;4.70;99.90;;;;;;5134353;27;20050;-71
2021/11/27 07:30:43;;;;;;;28.42;16.35;;;4.70;99.90;;;;;;5133393;27;20035;-71
2021/11/27 07:33:08;;;;;;;29.15;16.90;;;4.70;99.90;;;;;;5134751;27;20035;-70
2021/11/27 07:35:34;;;;;;;24.13;15.00;;;4.70;99.90;;;;;;5134005;27;20043;-71
2021/11/27 07:38:00;;;;;;;24.52;13.98;;;4.70;99.90;;;;;;5134216;27;20043;-70
2021/11/27 07:40:26;;;;;;;28.35;16.52;;;4.70;99.90;;;;;;5134462;27;20043;-70
2021/11/27 07:42:52;;;;;;;25.38;16.23;;;4.70;99.90;;;;;;5134282;27;20043;-70
2021/11/27 07:45:20;;;;;;;28.67;17.58;;;4.70;99.90;;;;;;5134840;27;20467;-70
2021/11/27 07:47:45;;;;;;;25.52;15.82;;;4.70;99.90;;;;;;5133779;27;20558;-70
2021/11/27 07:50:11;;;;;;;26.95;16.25;;;4.70;99.90;;;;;;5133113;27;20039;-70
2021/11/27 07:52:37;;;;;;;27.75;16.38;;;4.70;99.90;;;;;;5134352;27;20047;-70
2021/11/27 07:55:03;;;;;;;22.85;14.50;;;4.70;99.90;;;;;;5134351;27;20062;-70
2021/11/27 07:57:28;;;;;;;27.05;15.93;;;4.80;99.90;;;;;;5136217;27;20389;-71
2021/11/27 07:59:54;;;;;;;26.05;16.35;;;4.80;99.90;;;;;;5138322;27;20126;-71
2021/11/27 08:02:20;;;;;;;32.90;16.30;;;4.80;99.90;;;;;;5136790;27;20072;-71
2021/11/27 08:04:45;;;;;;;26.63;15.70;;;4.80;99.90;;;;;;5136810;27;20035;-71
2021/11/27 08:07:11;;;;;;;23.27;15.93;;;4.80;99.90;;;;;;5137706;27;20035;-70
2021/11/27 08:09:36;;;;;;;26.63;16.02;;;4.80;99.90;;;;;;5138393;27;20079;-71
2021/11/27 08:12:02;;;;;;;29.90;17.90;;;4.80;99.90;;;;;;5137187;27;20039;-70
2021/11/27 08:14:31;;;;;;;33.35;17.13;;;4.80;99.90;;;;;;5138206;27;20070;-71
2021/11/27 08:16:59;;;;;;;27.30;16.17;;;4.80;99.90;;;;;;5136280;27;20115;-70
2021/11/27 08:19:25;;;;;;;34.38;18.23;;;4.90;99.90;;;;;;5136561;27;20585;-70
2021/11/27 08:21:51;;;;;;;25.58;17.00;;;4.80;99.90;;;;;;5137892;27;20070;-70
2021/11/27 08:24:16;;;;;;;35.38;18.33;;;4.90;99.90;;;;;;5137961;27;20120;-71
2021/11/27 08:26:42;;;;;;;27.88;17.50;;;4.90;99.90;;;;;;5137291;27;20708;-71
2021/11/27 08:29:08;;;;;;;27.95;17.40;;;4.90;99.90;;;;;;5137873;27;20096;-71
2021/11/27 08:31:33;;;;;;;29.10;17.45;;;4.90;99.90;;;;;;5138049;27;20066;-71
2021/11/27 08:33:59;;;;;;;24.30;15.48;;;4.90;99.90;;;;;;5137873;27;20131;-71
2021/11/27 08:36:25;;;;;;;27.90;16.20;;;4.90;99.90;;;;;;5137388;27;20035;-71
2021/11/27 08:38:51;;;;;;;27.02;16.85;;;4.90;99.90;;;;;;5136291;27;20039;-71
2021/11/27 08:41:17;;;;;;;27.08;17.08;;;4.90;99.90;;;;;;5137720;27;20047;-71
2021/11/27 08:43:42;;;;;;;27.98;15.88;;;5.00;99.90;;;;;;5137361;27;20100;-71
2021/11/27 08:46:08;;;;;;;25.45;16.27;;;5.00;99.90;;;;;;5137167;27;20070;-71
2021/11/27 08:48:37;;;;;;;29.08;15.15;;;5.00;99.90;;;;;;5137284;27;20046;-70
2021/11/27 08:51:10;;;;;;;23.83;14.52;;;5.00;99.90;;;;;;5137437;27;20035;-71
2021/11/27 08:53:37;;;;;;;25.50;15.32;;;5.00;99.90;;;;;;5136298;27;20107;-71
2021/11/27 08:56:05;;;;;;;23.27;14.85;;;5.00;99.90;;;;;;5136987;27;20035;-72
2021/11/27 08:58:31;;;;;;;23.95;14.90;;;5.10;99.90;;;;;;5137711;27;20049;-71
2021/11/27 09:00:57;;;;;;;24.45;15.30;;;5.10;99.90;;;;;;5137184;27;20039;-71
2021/11/27 09:03:22;;;;;;;24.08;15.60;;;5.10;99.90;;;;;;5137237;27;20047;-71
2021/11/27 09:05:49;;;;;;;22.23;15.50;;;5.10;99.90;;;;;;5135346;27;20114;-70
2021/11/27 09:08:15;;;;;;;25.05;14.70;;;5.10;99.90;;;;;;5135793;27;20092;-71
2021/11/27 09:10:40;;;;;;;21.45;13.85;;;5.20;99.90;;;;;;5137461;27;20038;-71
2021/11/27 09:13:06;;;;;;;24.42;14.32;;;5.20;99.90;;;;;;5133222;27;20408;-72
2021/11/27 09:15:32;;;;;;;26.67;14.77;;;5.20;99.90;;;;;;5127406;27;20035;-73
2021/11/27 09:17:57;;;;;;;21.83;13.20;;;5.20;99.90;;;;;;5136973;27;20035;-72
2021/11/27 09:20:25;;;;;;;25.60;14.95;;;5.30;99.90;;;;;;5137000;27;20108;-70
2021/11/27 09:22:51;;;;;;;24.45;13.73;;;5.30;99.90;;;;;;5136941;27;20083;-70
2021/11/27 09:25:16;;;;;;;21.50;13.27;;;5.20;99.90;;;;;;5136492;27;20067;-70
2021/11/27 09:27:42;;;;;;;20.45;13.27;;;5.30;99.90;;;;;;5136233;27;20035;-70
2021/11/27 09:30:10;;;;;;;18.00;12.23;;;5.30;99.90;;;;;;5136619;27;20365;-71
2021/11/27 09:32:36;;;;;;;21.65;13.48;;;5.30;99.90;;;;;;5136466;27;20530;-72
2021/11/27 09:35:03;;;;;;;19.58;12.65;;;5.30;99.90;;;;;;5136508;27;20035;-71
2021/11/27 09:37:29;;;;;;;21.63;13.35;;;5.30;99.90;;;;;;5134605;27;20043;-71
2021/11/27 09:39:55;;;;;;;21.10;13.05;;;5.30;99.90;;;;;;5136606;27;20396;-71
2021/11/27 09:42:21;;;;;;;20.55;13.02;;;5.30;99.90;;;;;;5136152;27;20089;-71
2021/11/27 09:44:52;;;;;;;22.77;14.25;;;5.30;99.90;;;;;;5135093;27;20091;-71
2021/11/27 09:47:18;;;;;;;24.60;13.15;;;5.40;99.90;;;;;;5136075;27;20042;-71
2021/11/27 09:49:46;;;;;;;20.80;12.57;;;5.40;99.90;;;;;;5136395;27;20038;-71
2021/11/27 09:52:12;;;;;;;22.85;13.65;;;5.40;99.90;;;;;;5136105;27;20054;-71
2021/11/27 09:54:38;;;;;;;19.73;13.15;;;5.40;99.90;;;;;;5136336;27;20043;-72
2021/11/27 09:57:09;;;;;;;26.13;15.77;;;5.50;99.90;;;;;;5135654;27;20080;-71
2021/11/27 09:59:36;;;;;;;22.95;13.48;;;5.50;99.90;;;;;;5134662;27;20126;-71
2021/11/27 10:02:05;;;;;;;19.13;11.73;;;5.50;99.90;;;;;;5135868;27;20078;-71
2021/11/27 10:04:33;;;;;;;24.48;13.93;;;5.40;99.90;;;;;;5136064;27;20031;-71
2021/11/27 10:06:59;;;;;;;25.73;13.48;;;5.40;99.90;;;;;;5135663;27;20089;-71
2021/11/27 10:09:25;;;;;;;21.58;13.70;;;5.50;99.90;;;;;;5135626;27;20039;-71
2021/11/27 10:11:53;;;;;;;23.58;12.95;;;5.40;99.90;;;;;;5135796;27;20027;-71
2021/11/27 10:14:20;;;;;;;21.50;13.23;;;5.50;99.90;;;;;;5135725;27;20039;-73
2021/11/27 10:16:58;;;;;;;23.27;12.93;;;5.60;99.90;;;;;;5135174;27;20126;-73
2021/11/27 10:19:49;;;;;;;22.55;14.32;;;5.70;99.90;;;;;;5134140;27;20518;-72
2021/11/27 10:22:23;;;;;;;21.77;13.23;;;5.90;99.90;;;;;;5134439;27;20047;-73
2021/11/27 10:24:50;;;;;;;22.50;12.98;;;5.90;99.90;;;;;;5134268;27;20039;-72
2021/11/27 10:27:29;;;;;;;20.27;12.57;;;6.00;99.90;;;;;;5135020;27;20123;-73
2021/11/27 10:29:59;;;;;;;24.70;13.32;;;6.10;99.90;;;;;;5136322;27;20391;-72
2021/11/27 10:32:39;;;;;;;20.60;13.48;;;6.20;99.90;;;;;;5116807;27;20043;-74
2021/11/27 10:35:16;;;;;;;21.70;13.38;;;6.20;99.90;;;;;;5135332;27;20208;-73
2021/11/27 10:37:44;;;;;;;19.90;12.50;;;6.20;99.90;;;;;;5134837;27;20050;-72
2021/11/27 10:40:28;;;;;;;19.08;11.63;;;6.20;99.90;;;;;;5134982;27;20035;-72
2021/11/27 10:42:56;;;;;;;19.83;12.32;;;6.20;99.90;;;;;;5135222;27;20064;-72
2021/11/27 10:45:26;;;;;;;20.25;12.95;;;6.20;99.90;;;;;;5133698;27;20057;-73
2021/11/27 10:48:06;;;;;;;20.67;12.27;;;6.20;99.90;;;;;;5135076;27;20082;-72
2021/11/27 10:50:44;;;;;;;20.77;12.82;;;6.20;99.90;;;;;;5135083;27;20516;-73
2021/11/27 10:53:12;;;;;;;18.08;12.30;;;6.20;99.90;;;;;;5135303;27;20043;-73
2021/11/27 10:55:42;;;;;;;21.50;12.68;;;6.20;99.90;;;;;;5134440;27;20392;-72
2021/11/27 10:58:09;;;;;;;19.15;12.38;;;6.20;99.90;;;;;;5134065;27;20078;-72
2021/11/27 11:00:43;;;;;;;25.05;13.48;;;6.20;99.90;;;;;;5134959;27;20392;-72
2021/11/27 11:03:22;;;;;;;;;;;6.20;99.90;;;;;;5135386;27;20068;-72
2021/11/27 11:05:48;;;;;;;18.45;12.07;;;6.20;99.90;;;;;;5133147;27;19922;-72
2021/11/27 11:08:14;;;;;;;17.27;11.82;;;6.20;99.90;;;;;;5134865;27;20039;-72
2021/11/27 11:10:40;;;;;;;13.75;9.05;;;6.20;99.90;;;;;;5134952;27;20027;-72
2021/11/27 11:13:11;;;;;;;13.00;8.65;;;6.30;99.90;;;;;;5134706;27;20073;-72
2021/11/27 11:15:38;;;;;;;11.90;8.00;;;6.40;99.90;;;;;;5133335;27;20140;-73
2021/11/27 11:18:20;;;;;;;10.50;6.88;;;6.40;99.90;;;;;;5133680;27;20073;-72
2021/11/27 11:20:50;;;;;;;8.57;5.13;;;6.40;99.90;;;;;;5134365;27;20469;-73
2021/11/27 11:23:26;;;;;;;6.95;4.85;;;6.50;99.90;;;;;;5133191;27;20043;-73
2021/11/27 11:26:15;;;;;;;5.53;3.33;;;6.50;99.90;;;;;;5134066;27;20125;-73
2021/11/27 11:28:56;;;;;;;5.82;3.85;;;6.60;99.90;;;;;;5135268;27;20427;-73
2021/11/27 11:31:32;;;;;;;8.60;6.13;;;6.60;99.90;;;;;;5133673;27;20074;-73
2021/11/27 11:34:00;;;;;;;8.13;6.35;;;6.70;99.90;;;;;;5134576;27;20122;-73
2021/11/27 11:36:26;;;;;;;7.88;4.78;;;6.70;99.90;;;;;;5134055;27;20043;-72
2021/11/27 11:38:55;;;;;;;6.05;4.43;;;6.70;99.90;;;;;;5134146;27;20043;-73
2021/11/27 11:41:23;;;;;;;6.55;3.83;;;6.70;99.90;;;;;;5134423;27;20048;-73
2021/11/27 11:43:50;;;;;;;4.15;3.75;;;6.60;99.90;;;;;;5132794;28;20047;-73
2021/11/27 11:46:16;;;;;;;5.32;4.65;;;6.70;99.90;;;;;;5133763;27;20490;-73
2021/11/27 11:48:54;;;;;;;5.10;4.15;;;6.70;99.90;;;;;;5133159;27;20105;-73
2021/11/27 11:51:41;;;;;;;5.03;4.53;;;6.70;99.90;;;;;;5134143;27;20039;-73
2021/11/27 11:54:09;;;;;;;6.45;4.72;;;6.70;99.90;;;;;;5133187;27;20434;-73
2021/11/27 11:56:38;;;;;;;5.63;4.88;;;6.70;99.90;;;;;;5132402;28;20051;-73
2021/11/27 11:59:36;;;;;;;7.97;5.70;;;6.70;99.90;;;;;;5115810;28;20408;-73
2021/11/27 12:02:22;;;;;;;8.25;6.93;;;6.70;99.90;;;;;;5122112;27;20076;-73
2021/11/27 12:05:11;;;;;;;6.15;5.53;;;6.70;99.90;;;;;;5134285;27;20039;-72
2021/11/27 12:10:25;;;;;;;6.85;6.15;;;6.40;99.90;;;;;;5133997;28;20092;-72
2021/11/27 12:13:09;;;;;;;9.05;6.13;;;6.40;99.90;;;;;;5133868;27;20118;-73
2021/11/27 12:15:44;;;;;;;9.88;6.82;;;6.20;99.90;;;;;;5133651;27;20050;-73
2021/11/27 12:18:20;;;;;;;6.78;6.00;;;6.20;99.90;;;;;;5133983;27;20093;-73
2021/11/27 12:20:55;;;;;;;6.82;6.13;;;6.10;99.90;;;;;;5133282;28;20353;-73
2021/11/27 12:23:34;;;;;;;7.82;7.03;;;6.10;99.90;;;;;;5132713;27;20054;-72
2021/11/27 12:26:06;;;;;;;8.32;7.20;;;6.10;99.90;;;;;;5133686;27;20500;-73
2021/11/27 12:28:32;;;;;;;8.55;7.75;;;6.00;99.90;;;;;;5134459;27;20093;-72
2021/11/27 12:31:01;;;;;;;8.38;7.57;;;6.00;99.90;;;;;;5130020;27;20043;-72
2021/11/27 12:33:52;;;;;;;8.30;7.30;;;5.90;99.90;;;;;;5133796;27;20489;-73
2021/11/27 12:36:26;;;;;;;10.63;7.85;;;6.00;99.90;;;;;;5133762;27;20039;-72
2021/11/27 12:38:57;;;;;;;8.43;6.85;;;6.00;99.90;;;;;;5132670;28;20051;-78
2021/11/27 12:41:24;;;;;;;8.40;7.15;;;6.00;99.90;;;;;;5132648;27;20054;-71
2021/11/27 12:44:13;;;;;;;9.05;6.57;;;6.10;99.90;;;;;;5136037;27;20051;-72
2021/11/27 12:47:00;;;;;;;9.57;6.93;;;6.10;99.90;;;;;;5137325;27;20353;-71
2021/11/27 12:49:32;;;;;;;10.38;7.57;;;6.00;99.90;;;;;;5138001;27;20054;-75